Time;durP1;ratioP1;P1;durP2;ratioP2;P2;SDS_P1;SDS_P2;PMS_P1;PMS_P2;Temp;Humidity;BMP_temperature;BMP_pressure;BME280_temperature;BME280_humidity;BME280_pressure;Samples;Min_cycle;Max_cycle;Signal;HPM_P1;HPM_P2
2023/05/27 00:00:08;;;;;;;13.38;3.58;;;10.30;99.90;;;;;;4926660;29;20206;-78
2023/05/27 00:02:34;;;;;;;11.73;3.95;;;10.30;99.90;;;;;;4899413;29;20493;-78
2023/05/27 00:05:00;;;;;;;10.52;3.80;;;10.70;99.90;;;;;;4895182;28;20730;-79
2023/05/27 00:07:27;;;;;;;14.23;3.92;;;10.20;99.90;;;;;;4892654;28;20044;-79
2023/05/27 00:09:54;;;;;;;11.90;3.75;;;10.20;99.90;;;;;;4907635;29;20090;-82
2023/05/27 00:12:19;;;;;;;13.30;4.78;;;10.10;99.90;;;;;;4910307;29;20086;-81
2023/05/27 00:14:46;;;;;;;9.52;3.70;;;10.20;99.90;;;;;;4910151;29;20205;-82
2023/05/27 00:17:14;;;;;;;9.40;3.70;;;10.10;99.90;;;;;;4905437;29;20062;-80
2023/05/27 00:19:42;;;;;;;11.27;3.90;;;10.10;99.90;;;;;;4897291;29;20039;-78
2023/05/27 00:22:07;;;;;;;11.05;4.43;;;10.00;99.90;;;;;;4908276;29;20043;-83
2023/05/27 00:24:39;;;;;;;13.07;4.07;;;10.00;99.90;;;;;;4879686;29;20819;-81
2023/05/27 00:27:09;;;;;;;14.00;4.03;;;10.00;99.90;;;;;;4927913;29;20051;-81
2023/05/27 00:29:35;;;;;;;10.23;3.78;;;9.90;99.90;;;;;;4911336;29;20047;-81
2023/05/27 00:32:02;;;;;;;16.27;3.88;;;9.80;99.90;;;;;;4926736;28;20058;-79
2023/05/27 00:34:29;;;;;;;14.25;4.97;;;9.90;99.90;;;;;;4892846;28;20560;-79
2023/05/27 00:36:55;;;;;;;8.05;3.38;;;9.80;99.90;;;;;;4879896;28;20048;-79
2023/05/27 00:39:21;;;;;;;12.90;4.22;;;9.70;99.90;;;;;;4926611;29;20357;-78
2023/05/27 00:41:50;;;;;;;13.13;3.33;;;9.70;99.90;;;;;;4927612;29;20047;-79
2023/05/27 00:44:17;;;;;;;14.15;4.53;;;9.80;99.90;;;;;;4913064;28;20561;-78
2023/05/27 00:46:44;;;;;;;8.90;3.95;;;9.80;99.90;;;;;;4912582;29;20118;-77
2023/05/27 00:49:10;;;;;;;11.10;4.70;;;9.70;99.90;;;;;;4933350;28;20054;-78
2023/05/27 00:51:36;;;;;;;10.30;3.97;;;9.70;99.90;;;;;;4904804;29;20056;-78
2023/05/27 00:54:02;;;;;;;15.77;4.25;;;9.70;99.90;;;;;;4888590;29;20066;-77
2023/05/27 00:56:28;;;;;;;15.85;4.78;;;9.80;99.90;;;;;;4927167;29;20052;-78
2023/05/27 00:58:53;;;;;;;18.08;5.05;;;9.80;99.90;;;;;;4895743;29;20122;-78
2023/05/27 01:01:25;;;;;;;16.88;4.15;;;9.80;99.90;;;;;;4892687;29;20113;-79
2023/05/27 01:03:52;;;;;;;8.68;4.43;;;9.90;99.90;;;;;;4895326;29;20036;-80
2023/05/27 01:06:40;;;;;;;13.25;4.10;;;9.90;99.90;;;;;;4927086;29;20075;-82
2023/05/27 01:09:23;;;;;;;14.50;4.72;;;10.00;99.90;;;;;;4892192;29;20071;-82
2023/05/27 01:12:07;;;;;;;12.82;4.10;;;10.00;99.90;;;;;;4911738;28;20044;-80
2023/05/27 01:14:35;;;;;;;13.32;5.05;;;10.10;99.90;;;;;;4929930;29;20044;-81
2023/05/27 01:17:05;;;;;;;17.63;4.78;;;10.10;99.90;;;;;;4897310;29;20063;-78
2023/05/27 01:19:34;;;;;;;9.73;3.92;;;10.00;99.90;;;;;;4911672;29;20028;-79
2023/05/27 01:22:01;;;;;;;8.23;3.75;;;9.80;99.90;;;;;;4896891;29;20042;-78
2023/05/27 01:24:27;;;;;;;9.35;4.00;;;9.60;99.90;;;;;;4914965;29;20043;-77
2023/05/27 01:26:55;;;;;;;9.73;3.83;;;9.40;99.90;;;;;;4927393;29;20056;-77
2023/05/27 01:29:22;;;;;;;12.07;4.82;;;9.60;99.90;;;;;;4898611;29;20119;-78
2023/05/27 01:32:01;;;;;;;15.82;5.28;;;9.60;99.90;;;;;;4926912;29;20059;-78
2023/05/27 01:34:46;;;;;;;11.68;4.85;;;9.60;99.90;;;;;;4925748;29;20313;-81
2023/05/27 01:37:16;;;;;;;11.15;4.05;;;9.80;99.90;;;;;;4930476;29;20181;-78
2023/05/27 01:39:42;;;;;;;10.13;4.35;;;9.90;99.90;;;;;;4913770;29;20058;-78
2023/05/27 01:42:09;;;;;;;11.52;4.35;;;9.90;99.90;;;;;;4929476;29;20483;-81
2023/05/27 01:44:36;;;;;;;10.70;4.40;;;9.90;99.90;;;;;;4907908;29;20523;-82
2023/05/27 01:47:02;;;;;;;12.07;4.15;;;9.90;99.90;;;;;;4909299;28;20047;-81
2023/05/27 01:49:31;;;;;;;15.55;4.85;;;9.90;99.90;;;;;;4930744;29;20416;-81
2023/05/27 01:51:57;;;;;;;10.18;4.43;;;9.90;99.90;;;;;;4920297;29;20055;-80
2023/05/27 01:54:23;;;;;;;14.05;4.22;;;10.00;99.90;;;;;;4911763;29;20097;-78
2023/05/27 01:56:49;;;;;;;11.95;4.55;;;9.90;99.90;;;;;;4914205;29;20047;-79
2023/05/27 01:59:15;;;;;;;15.40;4.65;;;10.10;99.90;;;;;;4929469;29;20047;-78
2023/05/27 02:01:41;;;;;;;9.60;4.50;;;10.10;99.90;;;;;;4913762;29;20040;-78
2023/05/27 02:04:07;;;;;;;12.93;3.92;;;10.10;99.90;;;;;;4913684;28;20058;-78
2023/05/27 02:06:33;;;;;;;12.60;3.75;;;10.10;99.90;;;;;;4879329;29;20118;-79
2023/05/27 02:09:00;;;;;;;15.40;4.03;;;10.20;99.90;;;;;;4890873;29;20080;-79
2023/05/27 02:11:25;;;;;;;11.15;3.92;;;10.30;99.90;;;;;;4925934;29;20408;-79
2023/05/27 02:13:52;;;;;;;18.75;4.35;;;10.30;99.90;;;;;;4883964;29;20044;-79
2023/05/27 02:16:20;;;;;;;19.50;4.13;;;10.40;99.90;;;;;;4915061;29;20134;-80
2023/05/27 02:18:48;;;;;;;13.52;4.13;;;10.40;99.90;;;;;;4898854;29;20050;-80
2023/05/27 02:21:15;;;;;;;12.70;3.67;;;10.60;99.90;;;;;;4912998;29;20043;-81
2023/05/27 02:23:40;;;;;;;12.52;3.78;;;10.60;99.90;;;;;;4915236;29;20046;-80
2023/05/27 02:26:06;;;;;;;18.17;4.43;;;10.50;99.90;;;;;;4898187;29;20131;-79
2023/05/27 02:28:32;;;;;;;13.43;4.35;;;10.60;99.90;;;;;;4915033;29;20046;-77
2023/05/27 02:30:58;;;;;;;11.00;4.10;;;10.60;99.90;;;;;;4913922;29;20044;-82
2023/05/27 02:33:24;;;;;;;16.75;4.63;;;10.60;99.90;;;;;;4929454;29;20050;-80
2023/05/27 02:35:51;;;;;;;13.88;4.43;;;10.70;99.90;;;;;;4914984;29;20051;-81
2023/05/27 02:38:17;;;;;;;12.98;3.80;;;10.70;99.90;;;;;;4913093;29;20127;-80
2023/05/27 02:40:43;;;;;;;15.55;4.35;;;10.60;99.90;;;;;;4914452;29;20050;-79
2023/05/27 02:43:08;;;;;;;12.35;4.45;;;10.80;99.90;;;;;;4897332;29;20060;-79
2023/05/27 02:45:34;;;;;;;19.17;5.32;;;10.90;99.90;;;;;;4914999;28;20048;-79
2023/05/27 02:48:01;;;;;;;17.52;4.88;;;11.00;99.90;;;;;;4899287;29;20044;-80
2023/05/27 02:50:27;;;;;;;11.63;4.18;;;11.00;99.90;;;;;;4899403;29;20051;-81
2023/05/27 02:52:53;;;;;;;11.63;3.92;;;11.10;99.90;;;;;;4911995;29;20086;-79
2023/05/27 02:55:18;;;;;;;12.90;4.32;;;11.30;99.90;;;;;;4898620;29;20087;-82
2023/05/27 02:57:45;;;;;;;16.75;4.97;;;11.30;99.90;;;;;;4913867;29;20051;-80
2023/05/27 03:00:12;;;;;;;14.98;4.47;;;11.30;99.90;;;;;;4930263;29;20122;-82
2023/05/27 03:02:37;;;;;;;12.07;4.28;;;11.30;99.90;;;;;;4914397;29;20050;-80
2023/05/27 03:05:04;;;;;;;15.98;4.60;;;11.30;99.90;;;;;;4914030;29;20044;-82
2023/05/27 03:07:30;;;;;;;14.07;4.28;;;11.30;99.90;;;;;;4890302;29;20036;-82
2023/05/27 03:09:56;;;;;;;11.35;3.97;;;11.30;99.90;;;;;;4879160;28;20134;-82
2023/05/27 03:12:23;;;;;;;14.57;4.40;;;11.30;99.90;;;;;;4903868;28;20047;-81
2023/05/27 03:14:51;;;;;;;12.93;4.30;;;11.20;99.90;;;;;;4928196;28;20035;-77
2023/05/27 03:17:19;;;;;;;18.98;4.53;;;11.20;99.90;;;;;;4912327;28;20412;-80
2023/05/27 03:19:45;;;;;;;18.83;5.07;;;11.10;99.90;;;;;;4910101;29;20036;-79
2023/05/27 03:22:11;;;;;;;14.82;5.38;;;11.10;99.90;;;;;;4912112;29;20052;-78
2023/05/27 03:24:37;;;;;;;14.30;4.63;;;11.10;99.90;;;;;;4909249;28;20094;-79
2023/05/27 03:27:03;;;;;;;15.73;4.72;;;11.10;99.90;;;;;;4928397;28;20075;-80
2023/05/27 03:29:30;;;;;;;9.80;3.70;;;11.20;99.90;;;;;;4912063;29;20487;-80
2023/05/27 03:31:56;;;;;;;14.25;3.95;;;11.20;99.90;;;;;;4894083;29;20054;-79
2023/05/27 03:34:22;;;;;;;15.68;4.70;;;11.10;99.90;;;;;;4903931;29;20508;-81
2023/05/27 03:36:49;;;;;;;11.35;4.63;;;11.30;99.90;;;;;;4913575;28;20051;-79
2023/05/27 03:39:16;;;;;;;12.23;4.18;;;11.30;99.90;;;;;;4926716;29;20055;-78
2023/05/27 03:41:42;;;;;;;20.48;4.88;;;11.10;99.90;;;;;;4903597;28;20039;-79
2023/05/27 03:44:08;;;;;;;12.52;4.85;;;11.20;99.90;;;;;;4895769;29;20052;-80
2023/05/27 03:46:35;;;;;;;10.00;3.80;;;11.20;99.90;;;;;;4908088;29;20484;-79
2023/05/27 03:49:01;;;;;;;12.90;3.85;;;11.20;99.90;;;;;;4887092;29;20039;-77
2023/05/27 03:51:27;;;;;;;13.63;4.30;;;11.20;99.90;;;;;;4912622;28;20102;-79
2023/05/27 03:53:53;;;;;;;15.13;4.65;;;11.10;99.90;;;;;;4895706;29;20120;-79
2023/05/27 03:56:19;;;;;;;13.40;3.83;;;11.10;99.90;;;;;;4925516;29;20047;-81
2023/05/27 03:58:45;;;;;;;16.65;4.90;;;11.10;99.90;;;;;;4896965;29;20079;-78
2023/05/27 04:01:17;;;;;;;14.10;3.95;;;11.10;99.90;;;;;;4911364;29;20061;-77
2023/05/27 04:03:43;;;;;;;9.02;4.45;;;11.10;99.90;;;;;;4895653;29;20067;-78
2023/05/27 04:06:09;;;;;;;14.93;4.47;;;11.20;99.90;;;;;;4922592;29;20070;-78
2023/05/27 04:08:37;;;;;;;12.60;3.88;;;11.10;99.90;;;;;;4926272;29;20054;-80
2023/05/27 04:11:03;;;;;;;16.90;4.57;;;11.30;99.90;;;;;;4912507;29;20047;-80
2023/05/27 04:13:29;;;;;;;16.85;4.50;;;11.30;99.90;;;;;;4929189;29;20052;-80
2023/05/27 04:15:56;;;;;;;14.15;4.68;;;11.50;99.90;;;;;;4912941;29;20044;-80
2023/05/27 04:18:22;;;;;;;17.10;4.60;;;11.60;99.90;;;;;;4893009;29;20477;-79
2023/05/27 04:20:50;;;;;;;13.95;4.63;;;11.60;99.90;;;;;;4912588;29;20042;-80
2023/05/27 04:23:16;;;;;;;12.27;4.53;;;11.80;99.90;;;;;;4911895;29;20047;-82
2023/05/27 04:25:42;;;;;;;15.45;4.70;;;11.80;99.90;;;;;;4929013;29;20048;-81
2023/05/27 04:28:09;;;;;;;15.45;4.75;;;11.90;99.90;;;;;;4927706;29;20043;-82
2023/05/27 04:30:35;;;;;;;18.63;5.32;;;12.10;99.90;;;;;;4926582;29;20575;-79
2023/05/27 04:33:02;;;;;;;14.23;4.75;;;12.10;99.90;;;;;;4911588;29;20050;-83
2023/05/27 04:35:30;;;;;;;18.08;4.72;;;12.10;99.90;;;;;;4893981;29;20094;-78
2023/05/27 04:37:58;;;;;;;15.10;4.47;;;12.20;99.90;;;;;;4914491;29;20384;-80
2023/05/27 04:40:24;;;;;;;13.43;4.60;;;12.30;99.90;;;;;;4914106;29;20048;-80
2023/05/27 04:42:50;;;;;;;18.90;5.10;;;12.30;99.90;;;;;;4912540;29;20056;-80
2023/05/27 04:45:16;;;;;;;12.82;4.25;;;12.30;99.90;;;;;;4934114;29;20090;-79
2023/05/27 04:47:42;;;;;;;18.63;5.40;;;12.30;99.90;;;;;;4911838;29;20093;-83
2023/05/27 04:50:09;;;;;;;13.35;4.13;;;12.40;99.90;;;;;;4937187;28;20044;-80
2023/05/27 04:52:38;;;;;;;13.75;4.65;;;12.40;99.90;;;;;;4930955;29;20051;-81
2023/05/27 04:55:08;;;;;;;10.25;3.97;;;12.60;99.90;;;;;;4927836;29;20043;-79
2023/05/27 04:57:35;;;;;;;14.13;4.40;;;12.50;99.90;;;;;;4929362;29;20122;-81
2023/05/27 05:02:35;;;;;;;13.02;4.75;;;12.70;99.90;;;;;;4913879;28;20051;-80
2023/05/27 05:05:14;;;;;;;10.88;4.00;;;12.70;99.90;;;;;;4915839;29;20035;-81
2023/05/27 05:07:41;;;;;;;10.48;3.78;;;12.70;99.90;;;;;;4915248;29;20048;-81
2023/05/27 05:10:08;;;;;;;12.43;3.90;;;12.80;99.90;;;;;;4915988;29;20039;-80
2023/05/27 05:12:35;;;;;;;11.85;4.13;;;12.70;99.90;;;;;;4916597;29;20052;-79
2023/05/27 05:15:01;;;;;;;14.00;4.38;;;12.70;99.90;;;;;;4897641;29;20040;-82
2023/05/27 05:17:27;;;;;;;14.48;4.22;;;12.80;99.90;;;;;;4927537;28;20119;-83
2023/05/27 05:19:53;;;;;;;10.10;4.53;;;12.70;99.90;;;;;;4912854;28;20478;-81
2023/05/27 05:22:19;;;;;;;10.68;3.53;;;13.00;99.90;;;;;;4908993;29;20450;-81
2023/05/27 05:24:49;;;;;;;17.63;4.38;;;12.90;99.90;;;;;;4926038;29;20800;-82
2023/05/27 05:27:15;;;;;;;10.13;4.03;;;12.90;99.90;;;;;;4881562;29;20039;-78
2023/05/27 05:29:41;;;;;;;14.93;4.00;;;13.00;99.90;;;;;;4913461;29;21092;-81
2023/05/27 05:32:10;;;;;;;13.85;3.70;;;13.00;99.90;;;;;;4911075;29;20134;-80
2023/05/27 05:34:37;;;;;;;14.05;4.47;;;12.90;99.90;;;;;;4915321;29;20384;-79
2023/05/27 05:37:02;;;;;;;13.82;4.07;;;12.90;99.90;;;;;;4930746;29;20496;-83
2023/05/27 05:39:28;;;;;;;13.43;4.20;;;13.00;99.90;;;;;;4916389;28;20082;-83
2023/05/27 05:41:54;;;;;;;13.52;3.80;;;13.00;99.90;;;;;;4911245;28;20051;-83
2023/05/27 05:44:20;;;;;;;14.77;3.80;;;13.00;99.90;;;;;;4912209;29;20063;-81
2023/05/27 05:46:46;;;;;;;14.18;3.53;;;13.00;99.90;;;;;;4897906;28;20114;-83
2023/05/27 05:49:11;;;;;;;15.05;4.50;;;13.00;99.90;;;;;;4895524;29;20174;-80
2023/05/27 05:51:37;;;;;;;14.80;4.65;;;13.10;99.90;;;;;;4906155;29;20059;-81
2023/05/27 05:54:03;;;;;;;14.15;4.38;;;13.10;99.90;;;;;;4910057;28;20044;-80
2023/05/27 05:56:29;;;;;;;12.48;3.85;;;13.10;99.90;;;;;;4905009;29;20046;-81
2023/05/27 05:58:54;;;;;;;11.52;4.78;;;13.20;99.90;;;;;;4927592;29;20051;-79
2023/05/27 06:01:20;;;;;;;15.32;4.60;;;13.30;99.90;;;;;;4887632;29;20036;-80
2023/05/27 06:03:46;;;;;;;11.63;4.50;;;13.30;99.90;;;;;;4924887;29;20035;-81
2023/05/27 06:06:12;;;;;;;14.15;4.35;;;13.20;99.90;;;;;;4911105;29;20404;-80
2023/05/27 06:08:38;;;;;;;13.45;3.65;;;13.40;99.90;;;;;;4908777;28;20051;-81
2023/05/27 06:11:07;;;;;;;14.68;4.70;;;13.40;99.90;;;;;;4909520;28;20048;-83
2023/05/27 06:13:33;;;;;;;12.70;4.13;;;13.70;99.90;;;;;;4903801;29;20043;-81
2023/05/27 06:15:59;;;;;;;15.52;4.38;;;13.70;99.90;;;;;;4905443;29;20499;-89
2023/05/27 06:18:25;;;;;;;12.38;4.47;;;13.90;99.90;;;;;;4919149;28;20055;-81
2023/05/27 06:20:52;;;;;;;17.23;4.63;;;13.90;99.90;;;;;;4891880;29;20131;-79
2023/05/27 06:23:18;;;;;;;12.13;3.83;;;14.00;99.90;;;;;;4893255;28;20380;-80
2023/05/27 06:25:44;;;;;;;14.50;4.30;;;14.20;99.90;;;;;;4911160;29;20045;-80
2023/05/27 06:28:10;;;;;;;18.23;4.47;;;14.30;99.90;;;;;;4899861;29;20044;-79
2023/05/27 06:30:37;;;;;;;18.48;4.43;;;14.50;99.90;;;;;;4911191;28;20044;-78
2023/05/27 06:33:03;;;;;;;17.33;4.65;;;14.50;99.90;;;;;;4896997;29;20048;-82
2023/05/27 06:35:28;;;;;;;17.33;4.82;;;14.60;99.90;;;;;;4914764;28;20048;-78
2023/05/27 06:37:54;;;;;;;19.77;5.13;;;14.70;99.90;;;;;;4927172;29;20044;-83
2023/05/27 06:40:20;;;;;;;14.90;4.18;;;14.90;99.90;;;;;;4913390;29;20044;-79
2023/05/27 06:42:46;;;;;;;12.18;4.28;;;15.10;99.90;;;;;;4913047;28;20051;-77
2023/05/27 06:45:12;;;;;;;14.73;4.38;;;15.10;99.90;;;;;;4911520;29;20512;-79
2023/05/27 06:47:38;;;;;;;17.35;5.40;;;15.30;99.90;;;;;;4896054;29;20051;-79
2023/05/27 06:50:05;;;;;;;13.35;4.50;;;15.00;99.90;;;;;;4913883;29;20048;-80
2023/05/27 06:52:30;;;;;;;13.32;4.20;;;15.10;99.90;;;;;;4894285;28;20054;-80
2023/05/27 06:54:56;;;;;;;16.25;4.00;;;15.20;99.90;;;;;;4926914;29;20047;-80
2023/05/27 06:57:22;;;;;;;19.10;4.78;;;15.30;99.90;;;;;;4903077;29;20059;-77
2023/05/27 06:59:47;;;;;;;13.98;3.85;;;15.50;99.90;;;;;;4892164;29;20047;-80
2023/05/27 07:02:13;;;;;;;10.65;4.05;;;15.70;99.90;;;;;;4894711;28;20044;-76
2023/05/27 07:04:39;;;;;;;16.70;4.32;;;15.50;99.90;;;;;;4909826;29;20036;-79
2023/05/27 07:07:05;;;;;;;12.65;3.72;;;15.60;99.90;;;;;;4901099;29;20052;-79
2023/05/27 07:09:31;;;;;;;13.65;4.50;;;15.90;99.90;;;;;;4917634;28;20633;-79
2023/05/27 07:11:57;;;;;;;10.88;4.72;;;15.90;99.90;;;;;;4911559;28;20381;-77
2023/05/27 07:14:22;;;;;;;13.13;5.53;;;15.90;99.90;;;;;;4899112;29;20664;-76
2023/05/27 07:16:48;;;;;;;14.25;4.63;;;15.80;99.90;;;;;;4903413;28;20412;-77
2023/05/27 07:19:14;;;;;;;14.32;5.13;;;15.90;99.90;;;;;;4908843;29;20036;-80
2023/05/27 07:21:40;;;;;;;15.18;4.63;;;15.90;99.90;;;;;;4896405;29;20031;-75
2023/05/27 07:24:06;;;;;;;9.98;4.13;;;16.00;99.90;;;;;;4912049;29;20051;-76
2023/05/27 07:26:32;;;;;;;11.88;4.00;;;16.20;99.90;;;;;;4911415;29;20036;-79
2023/05/27 07:28:59;;;;;;;15.32;4.07;;;16.30;99.90;;;;;;4924282;28;20044;-76
2023/05/27 07:31:26;;;;;;;10.05;4.50;;;16.20;99.90;;;;;;4906502;29;20039;-76
2023/05/27 07:33:53;;;;;;;15.43;4.75;;;16.20;99.90;;;;;;4912486;28;20093;-78
2023/05/27 07:36:19;;;;;;;10.35;3.92;;;16.10;99.90;;;;;;4884490;28;20136;-80
2023/05/27 07:38:45;;;;;;;11.63;4.22;;;16.20;99.90;;;;;;4928326;29;20043;-76
2023/05/27 07:41:11;;;;;;;19.13;4.80;;;16.30;99.90;;;;;;4908812;29;20094;-79
2023/05/27 07:43:37;;;;;;;16.55;3.88;;;16.60;99.90;;;;;;4906316;28;20086;-79
2023/05/27 07:46:03;;;;;;;9.48;4.15;;;17.10;99.90;;;;;;4909076;28;20079;-79
2023/05/27 07:48:28;;;;;;;12.07;4.00;;;16.80;99.90;;;;;;4913563;28;20588;-76
2023/05/27 07:50:55;;;;;;;12.63;4.53;;;16.90;99.90;;;;;;4912789;29;20134;-80
2023/05/27 07:53:21;;;;;;;14.38;4.72;;;16.90;99.90;;;;;;4913178;28;20743;-77
2023/05/27 07:55:47;;;;;;;13.98;4.07;;;16.90;99.90;;;;;;4913054;28;20105;-80
2023/05/27 07:58:13;;;;;;;14.82;4.10;;;16.60;99.90;;;;;;4909125;29;20082;-79
2023/05/27 08:00:39;;;;;;;13.30;4.25;;;16.60;99.90;;;;;;4909386;28;20559;-80
2023/05/27 08:03:05;;;;;;;11.80;3.97;;;17.00;99.90;;;;;;4928669;28;20102;-78
2023/05/27 08:05:32;;;;;;;11.35;3.67;;;17.00;99.90;;;;;;4924846;28;20032;-78
2023/05/27 08:07:58;;;;;;;15.00;3.85;;;17.30;99.90;;;;;;4875589;28;20676;-80
2023/05/27 08:10:24;;;;;;;13.18;4.43;;;17.20;99.90;;;;;;4910918;29;20391;-76
2023/05/27 08:12:50;;;;;;;11.10;3.80;;;17.40;99.90;;;;;;4946770;29;20050;-77
2023/05/27 08:15:15;;;;;;;10.73;3.88;;;17.20;99.90;;;;;;4947306;29;20061;-77
2023/05/27 08:17:43;;;;;;;11.57;4.20;;;17.60;99.90;;;;;;4911979;28;20124;-79
2023/05/27 08:20:09;;;;;;;10.45;4.03;;;17.60;99.90;;;;;;4911021;29;20075;-75
2023/05/27 08:22:35;;;;;;;10.80;4.07;;;17.80;99.90;;;;;;4970251;28;20454;-77
2023/05/27 08:25:01;;;;;;;10.68;3.85;;;17.90;99.90;;;;;;4991484;28;20042;-78
2023/05/27 08:27:51;;;;;;;13.65;3.63;;;18.00;99.90;;;;;;4934399;28;20102;-77
2023/05/27 08:30:17;;;;;;;10.07;4.22;;;18.00;99.90;;;;;;4913571;29;20048;-79
2023/05/27 08:32:51;;;;;;;12.13;4.00;;;17.90;99.90;;;;;;4928133;29;20112;-80
2023/05/27 08:35:18;;;;;;;8.52;3.40;;;17.50;99.90;;;;;;4898135;29;20110;-78
2023/05/27 08:37:44;;;;;;;10.52;4.13;;;17.80;99.90;;;;;;4925306;29;20044;-76
2023/05/27 08:40:14;;;;;;;10.30;4.20;;;17.60;99.90;;;;;;4912341;28;20052;-76
2023/05/27 08:42:40;;;;;;;11.38;4.57;;;17.80;99.90;;;;;;4908610;29;20461;-79
2023/05/27 08:45:09;;;;;;;12.65;4.68;;;18.00;99.90;;;;;;4893962;29;20362;-81
2023/05/27 08:47:35;;;;;;;12.82;4.30;;;17.70;99.90;;;;;;4908123;28;20055;-81
2023/05/27 08:50:02;;;;;;;14.57;5.38;;;17.80;99.90;;;;;;4888868;28;20044;-82
2023/05/27 08:52:29;;;;;;;10.25;3.80;;;17.50;99.90;;;;;;4899121;29;20131;-81
2023/05/27 08:55:00;;;;;;;11.40;4.10;;;18.00;99.90;;;;;;4911132;28;20113;-79
2023/05/27 08:57:31;;;;;;;11.68;4.18;;;18.20;99.90;;;;;;4910372;29;20048;-79
2023/05/27 08:59:57;;;;;;;13.82;4.47;;;18.00;99.90;;;;;;4927990;29;20113;-80
2023/05/27 09:02:24;;;;;;;10.90;4.13;;;18.50;99.90;;;;;;4911777;28;20134;-74
2023/05/27 09:04:50;;;;;;;10.55;4.47;;;18.30;99.90;;;;;;4911364;29;20154;-78
2023/05/27 09:07:19;;;;;;;10.40;4.72;;;18.50;99.90;;;;;;4937231;28;20040;-78
2023/05/27 09:09:55;;;;;;;9.93;3.83;;;18.50;99.90;;;;;;4893895;28;20232;-77
2023/05/27 09:12:24;;;;;;;10.82;4.25;;;18.50;99.90;;;;;;4892394;29;20048;-75
2023/05/27 09:14:50;;;;;;;12.35;4.38;;;18.30;99.90;;;;;;4909736;29;20054;-77
2023/05/27 09:17:16;;;;;;;9.27;4.10;;;18.50;99.90;;;;;;4904273;28;20091;-77
2023/05/27 09:19:43;;;;;;;12.75;4.03;;;18.90;99.90;;;;;;4910966;29;20502;-79
2023/05/27 09:22:17;;;;;;;10.82;4.65;;;19.30;99.90;;;;;;4926347;29;20083;-76
2023/05/27 09:24:43;;;;;;;13.73;4.63;;;19.40;99.90;;;;;;4926599;29;20091;-78
2023/05/27 09:27:09;;;;;;;16.50;4.82;;;19.90;99.90;;;;;;4927658;28;20076;-76
2023/05/27 09:29:40;;;;;;;8.43;4.07;;;20.00;99.90;;;;;;4921369;28;20074;-81
2023/05/27 09:32:07;;;;;;;14.50;4.05;;;20.00;99.90;;;;;;4925365;29;20044;-79
2023/05/27 09:34:45;;;;;;;10.88;5.32;;;20.40;99.90;;;;;;4895296;29;20131;-77
2023/05/27 09:37:18;;;;;;;13.05;4.63;;;20.50;99.90;;;;;;4914436;29;20143;-76
2023/05/27 09:39:45;;;;;;;8.13;3.97;;;20.90;99.90;;;;;;4927002;28;20107;-77
2023/05/27 09:42:10;;;;;;;12.52;4.53;;;20.70;99.90;;;;;;4895203;29;20472;-76
2023/05/27 09:44:40;;;;;;;13.35;5.10;;;21.10;99.90;;;;;;4977316;28;20056;-78
2023/05/27 09:47:11;;;;;;;9.32;3.78;;;20.90;99.90;;;;;;4980354;28;20044;-77
2023/05/27 09:49:41;;;;;;;9.52;3.92;;;21.50;99.90;;;;;;4913535;29;20082;-78
2023/05/27 09:52:09;;;;;;;8.90;3.92;;;21.40;99.90;;;;;;4914227;29;20052;-77
2023/05/27 09:54:36;;;;;;;8.93;3.78;;;21.90;99.90;;;;;;4929648;29;20122;-74
2023/05/27 09:57:03;;;;;;;10.65;4.75;;;21.80;99.90;;;;;;4912264;29;20044;-79
2023/05/27 09:59:29;;;;;;;11.57;4.50;;;21.70;99.90;;;;;;4927225;28;20039;-77
2023/05/27 10:01:57;;;;;;;10.13;4.10;;;21.30;99.90;;;;;;4895081;29;20040;-78
2023/05/27 10:04:23;;;;;;;9.60;4.13;;;21.60;99.90;;;;;;4905498;29;20048;-76
2023/05/27 10:06:51;;;;;;;11.70;4.50;;;21.60;99.90;;;;;;4914160;29;20579;-75
2023/05/27 10:09:19;;;;;;;10.73;4.75;;;22.00;99.90;;;;;;4915483;28;20047;-77
2023/05/27 10:11:46;;;;;;;10.15;4.50;;;22.10;68.30;;;;;;4913412;28;20106;-77
2023/05/27 10:14:12;;;;;;;10.43;4.28;;;21.70;69.90;;;;;;4928684;29;20573;-79
2023/05/27 10:16:37;;;;;;;9.93;4.63;;;21.90;99.90;;;;;;4913254;29;20074;-80
2023/05/27 10:19:10;;;;;;;8.00;4.20;;;22.00;91.40;;;;;;4915254;28;20036;-76
2023/05/27 10:21:43;;;;;;;9.23;4.70;;;22.00;1.00;;;;;;4894837;29;20098;-79
2023/05/27 10:24:11;;;;;;;11.43;4.72;;;22.10;99.90;;;;;;4979961;28;20044;-77
2023/05/27 10:26:43;;;;;;;10.40;4.70;;;22.60;1.00;;;;;;4913939;29;20051;-76
2023/05/27 10:29:13;;;;;;;11.18;4.32;;;22.20;1.00;;;;;;4915532;28;20074;-78
2023/05/27 10:31:47;;;;;;;11.30;4.32;;;23.00;1.00;;;;;;4909056;28;20055;-78
2023/05/27 10:34:13;;;;;;;10.70;4.45;;;22.50;99.90;;;;;;4928763;29;20039;-76
2023/05/27 10:36:39;;;;;;;10.25;4.50;;;22.50;99.90;;;;;;4913529;29;20077;-77
2023/05/27 10:39:12;;;;;;;8.23;4.43;;;22.50;4.10;;;;;;4931126;28;20046;-81
2023/05/27 10:41:50;;;;;;;9.52;4.38;;;22.90;99.90;;;;;;4912821;28;20090;-80
2023/05/27 10:44:36;;;;;;;7.95;4.10;;;22.70;75.80;;;;;;4915525;29;20110;-81
2023/05/27 10:47:19;;;;;;;10.73;4.38;;;22.40;43.00;;;;;;4910417;29;20059;-80
2023/05/27 10:49:48;;;;;;;9.30;4.20;;;21.90;99.90;;;;;;4908299;29;20043;-80
2023/05/27 10:52:16;;;;;;;11.88;4.88;;;22.60;99.90;;;;;;4913932;29;20109;-80
2023/05/27 10:54:47;;;;;;;8.60;4.38;;;22.70;99.90;;;;;;4928920;29;20052;-79
2023/05/27 10:57:17;;;;;;;10.27;4.72;;;23.20;99.90;;;;;;4911967;28;20036;-80
2023/05/27 10:59:53;;;;;;;13.10;4.65;;;22.30;99.90;;;;;;4913742;28;20040;-81
2023/05/27 11:02:20;;;;;;;10.60;4.70;;;22.20;1.00;;;;;;4993837;28;20038;-82
2023/05/27 11:04:52;;;;;;;9.38;4.55;;;22.00;99.90;;;;;;4933434;28;20036;-82
2023/05/27 11:07:19;;;;;;;9.52;4.80;;;22.90;99.90;;;;;;4922408;29;20450;-81
2023/05/27 11:09:49;;;;;;;7.75;4.25;;;21.80;99.90;;;;;;4932897;29;20047;-81
2023/05/27 11:12:16;;;;;;;10.88;4.22;;;22.80;1.00;;;;;;4914955;29;20552;-81
2023/05/27 11:14:46;;;;;;;10.07;4.43;;;23.30;99.90;;;;;;4912824;28;20618;-83
2023/05/27 11:17:15;;;;;;;11.05;4.57;;;23.50;99.90;;;;;;4913738;28;20361;-82
2023/05/27 11:19:44;;;;;;;8.60;4.63;;;22.40;99.90;;;;;;4929406;29;20379;-82
2023/05/27 11:22:12;;;;;;;13.73;4.53;;;23.40;1.00;;;;;;4909409;28;20080;-81
2023/05/27 11:24:38;;;;;;;11.10;4.70;;;23.40;1.00;;;;;;4912652;29;20040;-80
2023/05/27 11:27:13;;;;;;;8.93;3.97;;;22.60;99.90;;;;;;4910997;28;20592;-78
2023/05/27 11:29:39;;;;;;;;;;;23.70;59.40;;;;;;4928570;29;20051;-79
2023/05/27 11:32:06;;;;;;;10.48;4.70;;;23.80;1.00;;;;;;4912168;29;19923;-86
2023/05/27 11:34:34;;;;;;;11.35;4.50;;;24.10;99.90;;;;;;4912195;28;20106;-79
2023/05/27 11:37:04;;;;;;;10.63;4.03;;;24.10;99.90;;;;;;4911107;28;20467;-82
2023/05/27 11:39:31;;;;;;;9.25;4.15;;;24.50;1.00;;;;;;4927891;29;20044;-81
2023/05/27 11:41:56;;;;;;;10.68;4.03;;;24.40;99.90;;;;;;4897662;29;20770;-82
2023/05/27 11:44:24;;;;;;;11.50;4.82;;;23.50;99.90;;;;;;4877919;29;20048;-80
2023/05/27 11:46:51;;;;;;;8.32;4.13;;;22.70;1.00;;;;;;4906335;28;20071;-76
2023/05/27 11:49:18;;;;;;;9.80;4.32;;;23.70;1.00;;;;;;4912348;29;20065;-78
2023/05/27 11:51:46;;;;;;;8.85;3.60;;;23.80;1.00;;;;;;4911666;29;20043;-79
2023/05/27 11:54:33;;;;;;;9.45;3.95;;;23.70;99.90;;;;;;4912229;29;20032;-82
2023/05/27 11:56:58;;;;;;;9.43;3.95;;;24.30;99.90;;;;;;4898640;29;20051;-77
2023/05/27 11:59:25;;;;;;;15.50;4.25;;;24.50;1.00;;;;;;4895911;29;20047;-78
2023/05/27 12:01:53;;;;;;;9.63;4.07;;;24.20;99.90;;;;;;4927349;29;20074;-83
2023/05/27 12:04:19;;;;;;;8.48;3.88;;;23.80;99.90;;;;;;4927897;29;20114;-79
2023/05/27 12:06:45;;;;;;;8.75;4.53;;;23.00;99.90;;;;;;4909127;28;20079;-83
2023/05/27 12:09:12;;;;;;;7.82;3.20;;;23.80;99.90;;;;;;4927694;29;20086;-81
2023/05/27 12:11:38;;;;;;;8.77;4.90;;;23.50;99.90;;;;;;4930202;28;20135;-81
2023/05/27 12:14:04;;;;;;;9.32;3.80;;;23.20;1.00;;;;;;4894368;29;20050;-80
2023/05/27 12:16:30;;;;;;;10.85;3.97;;;24.20;99.90;;;;;;4899402;29;20039;-80
2023/05/27 12:18:58;;;;;;;10.95;4.50;;;23.70;99.90;;;;;;4927224;29;20495;-81
2023/05/27 12:21:23;;;;;;;8.63;4.10;;;23.90;99.90;;;;;;4928947;29;20044;-81
2023/05/27 12:23:49;;;;;;;9.98;4.15;;;24.50;99.90;;;;;;4898668;29;20388;-81
2023/05/27 12:26:16;;;;;;;8.25;4.18;;;23.70;99.90;;;;;;4881705;28;20050;-84
2023/05/27 12:28:42;;;;;;;9.70;4.30;;;23.90;99.90;;;;;;4912388;29;20302;-80
2023/05/27 12:31:08;;;;;;;10.00;4.28;;;23.30;99.90;;;;;;4909877;28;20118;-80
2023/05/27 12:33:34;;;;;;;9.90;4.57;;;23.40;99.90;;;;;;4928745;29;20130;-79
2023/05/27 12:36:01;;;;;;;9.20;4.13;;;23.50;82.20;;;;;;4907047;29;20416;-80
2023/05/27 12:38:27;;;;;;;8.25;4.28;;;24.10;99.90;;;;;;4905972;28;20043;-83
2023/05/27 12:40:52;;;;;;;12.48;4.65;;;23.50;99.90;;;;;;4896468;29;20048;-80
2023/05/27 12:43:19;;;;;;;10.27;4.30;;;23.30;99.90;;;;;;4903579;29;20067;-82